Time;durP1;ratioP1;P1;durP2;ratioP2;P2;SDS_P1;SDS_P2;PMS_P1;PMS_P2;Temp;Humidity;BMP_temperature;BMP_pressure;BME280_temperature;BME280_humidity;BME280_pressure;Samples;Min_cycle;Max_cycle;Signal;HPM_P1;HPM_P2
2022/04/05 00:00:46;;;;;;;6.57;4.47;;;;;;;4.71;63.07;94614.22;5100411;27;20038;-79
2022/04/05 00:03:11;;;;;;;6.38;4.60;;;;;;;4.69;62.91;94613.47;5100535;27;20031;-78
2022/04/05 00:05:36;;;;;;;7.88;5.50;;;;;;;4.73;62.79;94614.91;5117774;27;20034;-79
2022/04/05 00:08:02;;;;;;;6.25;4.82;;;;;;;4.74;63.20;94608.88;5117277;27;20084;-79
2022/04/05 00:10:27;;;;;;;6.70;4.60;;;;;;;4.70;63.27;94605.63;5134650;27;20046;-79
2022/04/05 00:12:53;;;;;;;10.40;5.10;;;;;;;4.60;62.66;94590.91;5117560;27;20031;-79
2022/04/05 00:15:18;;;;;;;6.82;4.63;;;;;;;4.69;62.98;94609.16;5134422;27;20034;-79
2022/04/05 00:17:43;;;;;;;6.25;4.38;;;;;;;4.58;63.78;94596.13;5117228;27;20035;-79
2022/04/05 00:20:09;;;;;;;7.35;4.95;;;;;;;4.58;63.47;94608.19;5117163;27;20039;-78
2022/04/05 00:22:35;;;;;;;6.40;5.30;;;;;;;4.51;63.75;94596.59;5134138;27;20409;-78
2022/04/05 00:25:00;;;;;;;7.05;4.63;;;;;;;4.42;63.86;94596.25;5116940;27;20408;-78
2022/04/05 00:27:26;;;;;;;6.60;4.40;;;;;;;4.41;64.22;94593.78;5134045;27;20507;-78
2022/04/05 00:29:51;;;;;;;7.07;4.35;;;;;;;4.45;63.99;94601.19;5134045;27;20035;-78
2022/04/05 00:32:17;;;;;;;7.18;4.63;;;;;;;4.42;64.10;94596.25;5135306;27;20027;-79
2022/04/05 00:34:42;;;;;;;6.15;4.45;;;;;;;4.34;64.35;94600.22;5133875;27;20035;-79
2022/04/05 00:37:07;;;;;;;7.45;4.85;;;;;;;4.24;64.45;94590.50;5099582;27;20043;-78
2022/04/05 00:39:33;;;;;;;6.35;4.53;;;;;;;4.12;64.68;94588.69;5116871;27;20057;-78
2022/04/05 00:41:59;;;;;;;7.10;5.03;;;;;;;4.12;64.82;94587.84;5099610;27;20403;-79
2022/04/05 00:44:24;;;;;;;7.63;5.50;;;;;;;4.09;64.82;94585.47;5133652;27;20139;-79
2022/04/05 00:46:51;;;;;;;10.00;5.97;;;;;;;4.00;64.75;94569.69;5099632;27;20027;-79
2022/04/05 00:49:19;;;;;;;6.90;5.75;;;;;;;4.06;65.36;94572.81;5116642;27;20023;-78
2022/04/05 00:51:44;;;;;;;6.35;4.57;;;;;;;3.98;65.30;94580.97;5099838;27;20088;-79
2022/04/05 00:54:12;;;;;;;6.72;4.70;;;;;;;3.93;64.60;94575.31;5112974;28;20024;-79
2022/04/05 00:56:38;;;;;;;7.18;5.25;;;;;;;3.85;64.89;94583.47;5096791;27;20477;-79
2022/04/05 00:59:04;;;;;;;7.18;5.00;;;;;;;3.72;65.38;94567.16;5096141;28;20020;-78
2022/04/05 01:01:30;;;;;;;7.10;4.88;;;;;;;3.75;64.74;94569.53;5096002;28;20040;-78
2022/04/05 01:03:55;;;;;;;7.35;4.93;;;;;;;3.84;64.76;94578.41;5112868;28;20409;-79
2022/04/05 01:06:30;;;;;;;6.78;4.53;;;;;;;3.79;64.89;94576.16;5112718;28;20027;-78
2022/04/05 01:08:56;;;;;;;5.63;4.20;;;;;;;3.71;64.28;94565.50;5079511;28;20058;-78
2022/04/05 01:11:21;;;;;;;6.70;4.68;;;;;;;3.68;64.40;94563.13;5096141;28;20035;-78
2022/04/05 01:13:47;;;;;;;6.45;4.43;;;;;;;3.74;64.61;94567.88;5095745;28;20062;-79
2022/04/05 01:16:13;;;;;;;7.25;4.53;;;;;;;3.63;65.03;94565.13;5096074;28;20516;-78
2022/04/05 01:18:38;;;;;;;7.43;4.90;;;;;;;3.63;64.94;94568.53;5095420;27;20535;-79
2022/04/05 01:21:04;;;;;;;7.10;5.10;;;;;;;3.47;65.35;94544.66;5094101;27;20521;-78
2022/04/05 01:23:29;;;;;;;6.32;4.63;;;;;;;3.51;65.15;94562.38;5131725;27;20095;-79
2022/04/05 01:25:56;;;;;;;6.85;4.20;;;;;;;3.60;65.23;94578.16;5110367;27;20451;-79
2022/04/05 01:28:22;;;;;;;6.25;4.07;;;;;;;3.53;65.45;94570.78;5127921;27;20052;-78
2022/04/05 01:30:48;;;;;;;5.90;4.30;;;;;;;3.52;65.31;94579.44;5101669;27;20504;-78
2022/04/05 01:33:13;;;;;;;6.47;4.43;;;;;;;3.50;65.79;94576.13;5129244;27;20027;-79
2022/04/05 01:35:39;;;;;;;9.23;5.50;;;;;;;3.54;65.37;94580.16;5108646;28;20447;-78
2022/04/05 01:38:06;;;;;;;10.60;6.60;;;;;;;3.50;65.30;94565.84;5108803;27;20466;-78
2022/04/05 01:40:31;;;;;;;8.70;5.68;;;;;;;3.59;64.92;94574.75;5112443;27;20413;-78
2022/04/05 01:42:57;;;;;;;6.90;5.07;;;;;;;3.56;65.12;94577.50;5127681;27;20517;-79
2022/04/05 01:45:22;;;;;;;6.90;4.97;;;;;;;3.54;64.96;94575.03;5096988;27;20031;-78
2022/04/05 01:47:48;;;;;;;8.27;5.20;;;;;;;3.49;64.86;94571.09;5109409;28;20024;-78
2022/04/05 01:50:13;;;;;;;9.77;6.95;;;;;;;3.46;64.85;94566.94;5094884;28;20054;-79
2022/04/05 01:52:38;;;;;;;8.95;6.13;;;;;;;3.44;65.10;94568.78;5078709;27;20032;-79
2022/04/05 01:55:08;;;;;;;7.32;5.40;;;;;;;3.31;65.01;94548.13;5092415;28;20055;-78
2022/04/05 01:57:33;;;;;;;6.78;5.22;;;;;;;3.50;64.82;94573.53;5107225;27;20118;-79
2022/04/05 01:59:59;;;;;;;6.50;4.57;;;;;;;3.49;65.26;94564.19;5130764;27;20109;-78
2022/04/05 02:02:24;;;;;;;8.15;5.07;;;;;;;3.48;65.48;94565.13;5108604;28;20027;-79
2022/04/05 02:04:50;;;;;;;6.93;4.28;;;;;;;3.44;65.21;94561.06;5105447;27;20043;-78
2022/04/05 02:07:16;;;;;;;6.75;4.75;;;;;;;3.53;65.13;94565.66;5091553;28;20057;-78
2022/04/05 02:09:42;;;;;;;8.73;4.45;;;;;;;3.54;65.00;94562.19;5121674;27;20203;-78
2022/04/05 02:12:09;;;;;;;6.65;4.80;;;;;;;3.51;65.12;94556.38;5129199;27;20469;-79
2022/04/05 02:14:35;;;;;;;7.47;5.18;;;;;;;3.45;64.96;94547.31;5128878;27;20042;-78
2022/04/05 02:17:00;;;;;;;7.10;4.97;;;;;;;3.52;65.32;94553.75;5089084;28;20027;-78
2022/04/05 02:19:26;;;;;;;6.50;4.00;;;;;;;3.52;65.44;94547.78;5095525;27;20698;-79
2022/04/05 02:21:51;;;;;;;7.55;4.22;;;;;;;3.45;64.88;94544.72;5092177;27;20028;-79
2022/04/05 02:24:17;;;;;;;7.72;4.20;;;;;;;3.53;64.93;94546.84;5111473;27;20031;-78
2022/04/05 02:26:43;;;;;;;5.38;3.80;;;;;;;3.55;65.03;94543.28;5128519;27;20447;-78
2022/04/05 02:29:08;;;;;;;5.03;3.72;;;;;;;3.52;64.85;94547.78;5129566;27;20027;-79
2022/04/05 02:31:34;;;;;;;5.63;3.60;;;;;;;3.50;64.86;94536.78;5109953;28;20602;-79
2022/04/05 02:34:00;;;;;;;6.13;3.80;;;;;;;3.52;64.81;94532.38;5106101;28;20030;-79
2022/04/05 02:36:26;;;;;;;4.03;3.28;;;;;;;3.52;64.56;94533.19;5111107;28;20108;-78
2022/04/05 02:38:51;;;;;;;5.60;3.67;;;;;;;3.54;64.41;94530.53;5112123;28;20015;-79
2022/04/05 02:41:16;;;;;;;6.00;3.70;;;;;;;3.59;64.79;94528.50;5094229;28;20039;-79
2022/04/05 02:43:42;;;;;;;4.90;3.40;;;;;;;3.57;64.51;94523.47;5077302;28;20105;-79
2022/04/05 02:46:10;;;;;;;5.28;3.35;;;;;;;3.57;64.81;94515.78;5077323;28;20035;-79
2022/04/05 02:48:35;;;;;;;5.25;3.97;;;;;;;3.55;64.74;94522.72;5110820;28;20028;-79
2022/04/05 02:51:01;;;;;;;4.72;3.60;;;;;;;3.55;64.58;94520.16;5112570;27;20096;-79
2022/04/05 02:53:26;;;;;;;5.10;3.78;;;;;;;3.57;64.77;94514.94;5110944;28;20042;-79
2022/04/05 02:55:52;;;;;;;4.97;3.72;;;;;;;3.55;64.58;94520.16;5111239;28;20057;-79
2022/04/05 02:58:17;;;;;;;3.78;3.20;;;;;;;3.55;65.06;94524.47;5110834;28;20066;-77
2022/04/05 03:00:43;;;;;;;5.38;3.45;;;;;;;3.55;65.02;94515.03;5093131;28;20046;-79
2022/04/05 03:03:08;;;;;;;4.35;3.60;;;;;;;3.44;64.66;94504.56;5110886;28;20016;-79
2022/04/05 03:05:33;;;;;;;5.95;4.38;;;;;;;3.50;64.43;94511.91;5093602;28;20027;-79
2022/04/05 03:07:59;;;;;;;5.13;3.80;;;;;;;3.43;65.39;94508.06;5093687;28;20027;-79
2022/04/05 03:10:25;;;;;;;5.45;3.28;;;;;;;3.40;65.13;94505.69;5110581;28;20055;-78
2022/04/05 03:12:50;;;;;;;6.10;3.22;;;;;;;3.33;65.30;94497.50;5110614;28;20433;-78
2022/04/05 03:15:16;;;;;;;5.15;2.85;;;;;;;3.34;65.18;94508.59;5110589;28;20032;-79
2022/04/05 03:17:43;;;;;;;13.48;3.65;;;;;;;3.41;65.31;94503.94;5093456;28;20412;-78
2022/04/05 03:20:12;;;;;;;5.55;3.08;;;;;;;3.38;65.36;94499.00;5094051;28;20053;-78
2022/04/05 03:22:38;;;;;;;4.45;3.20;;;;;;;3.34;65.26;94501.75;5094035;28;20039;-78
2022/04/05 03:25:04;;;;;;;4.95;2.88;;;;;;;3.32;65.40;94490.72;5094069;28;20035;-78
2022/04/05 03:27:29;;;;;;;3.88;3.10;;;;;;;3.36;65.15;94504.19;5093181;28;20516;-78
2022/04/05 03:29:55;;;;;;;3.83;3.20;;;;;;;3.38;64.56;94496.41;5093672;28;20032;-78
2022/04/05 03:32:20;;;;;;;4.85;3.00;;;;;;;3.38;64.99;94502.38;5093616;28;20034;-78
2022/04/05 03:34:46;;;;;;;4.18;3.22;;;;;;;3.44;64.38;94506.31;5110363;28;20081;-78
2022/04/05 03:37:11;;;;;;;4.10;3.15;;;;;;;3.29;64.59;94495.22;5110234;28;20417;-79
2022/04/05 03:39:39;;;;;;;3.63;3.13;;;;;;;3.40;64.79;94500.56;5110442;28;20036;-78
2022/04/05 03:42:04;;;;;;;4.93;3.03;;;;;;;3.46;64.32;94494.22;5110402;28;20040;-79
2022/04/05 03:44:30;;;;;;;5.45;3.30;;;;;;;3.48;64.21;94498.34;5110556;28;20031;-78
2022/04/05 03:46:57;;;;;;;4.75;3.22;;;;;;;3.30;64.25;94474.56;5093150;28;20031;-78
2022/04/05 03:49:23;;;;;;;6.30;3.40;;;;;;;3.39;64.24;94490.34;5093803;28;20482;-78
2022/04/05 03:51:48;;;;;;;3.97;3.08;;;;;;;3.42;64.28;94491.00;5110218;28;20077;-78
2022/04/05 03:54:14;;;;;;;3.92;3.20;;;;;;;3.49;64.37;94507.69;5093215;28;20027;-78
2022/04/05 03:56:39;;;;;;;3.85;3.30;;;;;;;3.32;64.19;94479.63;5106323;28;20043;-79
2022/04/05 03:59:05;;;;;;;14.40;8.52;;;;;;;3.47;65.01;94511.28;5111952;28;20031;-79
2022/04/05 04:01:30;;;;;;;18.42;9.48;;;;;;;3.40;65.47;94503.13;5115252;28;20027;-78
2022/04/05 04:03:56;;;;;;;46.17;23.98;;;;;;;3.39;65.08;94506.59;5108563;28;20024;-78
2022/04/05 04:06:21;;;;;;;22.27;11.95;;;;;;;3.25;65.37;94496.31;5107128;28;20031;-78
2022/04/05 04:08:47;;;;;;;21.35;11.32;;;;;;;3.28;65.16;94511.53;5127748;28;20038;-78
2022/04/05 04:11:13;;;;;;;16.45;9.80;;;;;;;3.28;65.56;94504.66;5113505;27;20109;-78
2022/04/05 04:13:39;;;;;;;11.95;6.53;;;;;;;3.18;65.59;94502.75;5117616;27;20027;-78
2022/04/05 04:16:04;;;;;;;10.40;6.75;;;;;;;3.16;65.18;94505.38;5134593;27;20019;-78
2022/04/05 04:18:30;;;;;;;11.07;7.07;;;;;;;3.09;65.49;94507.50;5117342;27;20050;-78
2022/04/05 04:20:55;;;;;;;11.10;7.07;;;;;;;2.98;65.96;94507.28;5134392;27;20401;-78
2022/04/05 04:23:21;;;;;;;12.48;7.30;;;;;;;2.85;65.61;94496.06;5098940;27;20038;-78
2022/04/05 04:25:46;;;;;;;8.90;5.40;;;;;;;2.90;65.76;94510.28;5116919;27;20046;-78
2022/04/05 04:28:12;;;;;;;5.50;3.60;;;;;;;2.87;66.56;94497.66;5107993;28;20031;-78
2022/04/05 04:30:38;;;;;;;4.50;3.50;;;;;;;2.94;66.03;94505.81;5113240;28;20040;-78
2022/04/05 04:33:04;;;;;;;9.55;6.10;;;;;;;3.00;66.44;94505.44;5114133;27;20023;-78
2022/04/05 04:35:29;;;;;;;16.55;11.95;;;;;;;3.00;66.03;94513.13;5096300;28;20039;-78
2022/04/05 04:37:55;;;;;;;19.42;12.90;;;;;;;2.99;67.16;94506.38;5080293;27;20058;-78
2022/04/05 04:40:20;;;;;;;19.42;14.23;;;;;;;2.99;66.96;94508.94;5090447;28;20027;-79
2022/04/05 04:42:46;;;;;;;19.58;13.75;;;;;;;3.05;66.86;94505.19;5112982;28;20482;-79
2022/04/05 04:45:11;;;;;;;22.35;15.63;;;;;;;3.03;67.43;94512.97;5109626;27;20031;-78
2022/04/05 04:47:37;;;;;;;24.27;15.45;;;;;;;3.03;67.44;94515.53;5105802;27;20564;-78
2022/04/05 04:50:03;;;;;;;26.55;16.58;;;;;;;3.06;67.42;94515.34;5137326;27;20086;-78
2022/04/05 04:52:28;;;;;;;42.28;23.30;;;;;;;3.06;67.36;94520.47;5103083;28;20085;-79
2022/04/05 04:54:54;;;;;;;26.08;17.05;;;;;;;3.07;67.01;94521.34;5096083;28;20035;-78
2022/04/05 04:57:21;;;;;;;24.40;16.98;;;;;;;3.04;66.92;94527.47;5094607;27;20035;-78
2022/04/05 04:59:47;;;;;;;23.98;15.68;;;;;;;3.07;67.49;94521.34;5110928;27;20068;-79
2022/04/05 05:02:12;;;;;;;23.48;15.57;;;;;;;3.10;67.32;94518.59;5128819;27;20023;-79
2022/04/05 05:04:38;;;;;;;23.27;15.23;;;;;;;3.12;67.47;94511.59;5116039;27;20039;-78
2022/04/05 05:07:04;;;;;;;23.77;14.93;;;;;;;3.17;67.22;94521.59;5108939;27;20046;-79
2022/04/05 05:09:29;;;;;;;27.40;19.48;;;;;;;3.18;67.02;94518.13;5115118;27;20050;-79
2022/04/05 05:11:54;;;;;;;28.30;19.27;;;;;;;3.28;67.76;94532.06;5092581;27;20058;-78
2022/04/05 05:14:20;;;;;;;26.50;18.17;;;;;;;3.19;66.88;94512.09;5106192;28;20031;-78
2022/04/05 05:16:46;;;;;;;28.65;18.58;;;;;;;3.30;67.56;94530.25;5130436;27;20034;-78
2022/04/05 05:19:11;;;;;;;24.27;18.25;;;;;;;3.36;67.79;94525.56;5106269;28;20486;-79
2022/04/05 05:21:36;;;;;;;22.60;16.52;;;;;;;3.41;67.79;94533.00;5123892;27;20031;-79
2022/04/05 05:24:02;;;;;;;25.75;18.13;;;;;;;3.38;67.53;94533.19;5126281;27;20022;-79
2022/04/05 05:26:27;;;;;;;24.85;18.52;;;;;;;3.38;67.61;94546.03;5091692;28;20039;-78
2022/04/05 05:28:53;;;;;;;30.42;18.70;;;;;;;3.29;68.06;94534.56;5104338;27;20324;-79
2022/04/05 05:31:19;;;;;;;22.67;17.73;;;;;;;3.35;68.12;94541.91;5087032;27;20040;-78
2022/04/05 05:33:44;;;;;;;21.63;16.00;;;;;;;3.38;67.53;94545.22;5096550;27;20027;-78
2022/04/05 05:36:15;;;;;;;21.85;16.30;;;;;;;3.11;68.34;94513.34;5129861;27;20043;-84
2022/04/05 05:38:40;;;;;;;20.77;14.82;;;;;;;3.33;67.96;94546.28;5117783;27;20054;-76
2022/04/05 05:41:06;;;;;;;19.08;13.95;;;;;;;3.35;68.78;94543.66;5130127;27;20557;-83
2022/04/05 05:43:31;;;;;;;17.90;12.23;;;;;;;3.48;68.13;94539.44;5121049;27;20061;-75
2022/04/05 05:45:58;;;;;;;17.02;12.02;;;;;;;3.65;68.13;94551.28;5138311;27;20507;-77
2022/04/05 05:48:23;;;;;;;18.83;14.18;;;;;;;3.79;67.23;94541.00;5129415;27;20488;-77
2022/04/05 05:50:49;;;;;;;20.40;15.73;;;;;;;4.03;66.96;94543.78;5130590;27;20042;-77
2022/04/05 05:53:15;;;;;;;27.48;17.58;;;;;;;4.23;65.76;94547.72;5128897;27;20091;-76
2022/04/05 05:55:40;;;;;;;24.55;18.45;;;;;;;4.40;65.54;94545.81;5129225;27;21384;-76
2022/04/05 05:58:06;;;;;;;21.67;16.75;;;;;;;4.67;64.28;94545.84;5110246;27;20022;-75
2022/04/05 06:00:31;;;;;;;22.80;17.83;;;;;;;4.83;63.87;94531.06;5113546;27;20042;-74
2022/04/05 06:03:01;;;;;;;21.55;16.63;;;;;;;5.05;63.37;94527.91;5132489;27;20042;-77
2022/04/05 06:05:27;;;;;;;22.33;15.63;;;;;;;5.38;62.50;94540.31;5111370;27;20027;-77
2022/04/05 06:07:53;;;;;;;17.88;13.82;;;;;;;5.70;60.98;94537.31;5110327;27;20051;-77
2022/04/05 06:10:20;;;;;;;19.23;15.40;;;;;;;5.90;60.42;94537.69;5127466;27;20036;-77
2022/04/05 06:12:48;;;;;;;19.77;15.00;;;;;;;6.13;60.28;94541.28;5117622;27;20405;-77
2022/04/05 06:15:14;;;;;;;18.88;14.40;;;;;;;6.31;58.92;94532.28;5122606;27;20039;-77
2022/04/05 06:17:41;;;;;;;19.75;14.70;;;;;;;6.42;58.46;94526.38;5117638;27;20034;-78
2022/04/05 06:20:08;;;;;;;20.42;13.80;;;;;;;6.69;58.76;94526.16;5115533;27;20136;-78
2022/04/05 06:23:00;;;;;;;16.25;12.38;;;;;;;6.84;56.97;94522.44;5126325;27;20069;-75
2022/04/05 06:25:32;;;;;;;16.67;11.13;;;;;;;6.93;56.82;94526.13;5118333;27;20054;-76
2022/04/05 06:27:58;;;;;;;13.90;11.25;;;;;;;6.99;55.83;94519.69;5122854;27;20072;-77
2022/04/05 06:30:24;;;;;;;13.80;10.75;;;;;;;7.01;56.19;94521.22;5116491;27;20474;-77
2022/04/05 06:33:08;;;;;;;14.35;10.48;;;;;;;7.21;56.06;94521.50;5124321;27;20035;-82
2022/04/05 06:35:34;;;;;;;13.25;9.30;;;;;;;7.23;55.58;94528.22;5131772;27;20035;-76
2022/04/05 06:37:59;;;;;;;12.52;9.02;;;;;;;7.27;55.25;94508.13;5130232;27;20035;-76
2022/04/05 06:40:25;;;;;;;9.55;7.60;;;;;;;7.45;55.14;94519.69;5130632;27;20038;-76
2022/04/05 06:42:50;;;;;;;10.82;9.18;;;;;;;7.72;54.58;94521.13;5130539;27;20035;-76
2022/04/05 06:45:20;;;;;;;12.93;9.93;;;;;;;7.85;54.47;94519.22;5128653;27;20088;-77
2022/04/05 06:47:47;;;;;;;21.45;14.65;;;;;;;7.97;54.10;94522.66;5127671;27;20150;-76
2022/04/05 06:50:14;;;;;;;46.00;35.25;;;;;;;8.12;53.97;94513.69;5130117;27;20030;-76
2022/04/05 06:52:40;;;;;;;16.50;11.40;;;;;;;8.12;53.68;94505.13;5127104;27;20560;-76
2022/04/05 06:55:06;;;;;;;10.88;9.13;;;;;;;8.14;52.68;94508.41;5107993;27;20512;-76
2022/04/05 06:57:31;;;;;;;16.55;8.93;;;;;;;8.12;52.85;94515.47;5111934;27;20126;-75
2022/04/05 06:59:57;;;;;;;46.75;30.92;;;;;;;8.15;53.39;94505.69;5118862;27;20424;-76
2022/04/05 07:02:22;;;;;;;17.77;11.50;;;;;;;8.28;52.86;94511.56;5111111;27;20040;-76
2022/04/05 07:04:48;;;;;;;9.68;8.15;;;;;;;8.31;53.01;94518.25;5100660;27;20470;-76
2022/04/05 07:07:14;;;;;;;13.32;8.18;;;;;;;8.42;52.69;94518.28;5110906;27;20246;-75
2022/04/05 07:09:39;;;;;;;10.73;7.60;;;;;;;8.41;52.64;94516.63;5147141;27;20031;-76
2022/04/05 07:12:07;;;;;;;11.38;7.30;;;;;;;8.56;52.47;94503.41;5133311;27;20089;-76
2022/04/05 07:14:33;;;;;;;9.90;7.85;;;;;;;8.83;52.29;94508.97;5128085;27;20406;-76
2022/04/05 07:16:59;;;;;;;11.68;7.03;;;;;;;8.88;51.91;94486.09;5110557;28;20054;-76
2022/04/05 07:19:24;;;;;;;9.75;6.90;;;;;;;8.95;52.16;94509.75;5114016;28;20039;-75
2022/04/05 07:21:50;;;;;;;9.82;6.28;;;;;;;9.05;51.44;94504.63;5126298;28;20038;-76
2022/04/05 07:24:16;;;;;;;9.77;7.25;;;;;;;9.26;52.34;94502.88;5109070;28;20065;-76
2022/04/05 07:26:41;;;;;;;10.27;6.45;;;;;;;9.40;51.24;94487.00;5127310;28;20405;-75
2022/04/05 07:29:06;;;;;;;8.93;7.22;;;;;;;9.53;50.89;94496.34;5092822;28;20035;-75
2022/04/05 07:31:32;;;;;;;11.30;6.57;;;;;;;9.59;50.53;94498.44;5129237;27;20035;-76
2022/04/05 07:33:57;;;;;;;18.95;13.50;;;;;;;9.61;50.70;94496.50;5128397;27;20043;-76
2022/04/05 07:36:23;;;;;;;13.75;9.00;;;;;;;9.72;49.74;94499.06;5109718;28;20062;-76
2022/04/05 07:38:48;;;;;;;10.80;7.93;;;;;;;9.75;50.12;94485.81;5111343;28;20035;-76
2022/04/05 07:41:14;;;;;;;8.77;6.93;;;;;;;9.99;49.09;94490.69;5089754;28;20039;-81
2022/04/05 07:43:39;;;;;;;6.65;5.30;;;;;;;9.92;49.02;94486.13;5098861;28;20575;-78
2022/04/05 07:46:05;;;;;;;7.45;5.40;;;;;;;10.00;48.51;94481.97;5126193;27;20035;-75
2022/04/05 07:48:30;;;;;;;7.85;5.25;;;;;;;10.00;47.64;94475.91;5115716;27;20381;-75
2022/04/05 07:50:56;;;;;;;7.97;5.43;;;;;;;10.12;48.49;94498.25;5128970;27;20039;-75
2022/04/05 07:53:21;;;;;;;9.65;5.35;;;;;;;10.14;47.90;94504.13;5136420;27;20411;-75
2022/04/05 07:55:46;;;;;;;7.68;4.47;;;;;;;9.94;47.59;94481.63;5130677;27;20304;-75
2022/04/05 07:58:12;;;;;;;6.28;4.88;;;;;;;9.90;47.38;94470.72;5128288;27;20079;-75
2022/04/05 08:00:38;;;;;;;12.82;7.82;;;;;;;10.17;47.58;94490.88;5133053;27;20080;-75
2022/04/05 08:03:04;;;;;;;10.75;7.85;;;;;;;10.21;45.94;94488.84;5130023;27;20454;-75
2022/04/05 08:05:29;;;;;;;6.63;4.32;;;;;;;10.14;46.70;94488.56;5113913;27;20062;-75
2022/04/05 08:07:55;;;;;;;7.35;4.93;;;;;;;9.99;47.82;94489.84;5132785;27;20039;-75
2022/04/05 08:10:20;;;;;;;6.47;4.40;;;;;;;10.04;47.99;94485.09;5115032;27;20031;-75
2022/04/05 08:12:47;;;;;;;7.72;6.00;;;;;;;10.07;48.33;94471.84;5115045;27;20115;-75
2022/04/05 08:15:20;;;;;;;7.60;4.55;;;;;;;10.09;47.20;94488.13;5132026;27;20069;-75
2022/04/05 08:17:46;;;;;;;6.18;4.90;;;;;;;9.97;48.09;94486.56;5113658;27;20114;-75
2022/04/05 08:20:12;;;;;;;8.73;4.75;;;;;;;10.04;47.92;94483.31;5131122;27;20031;-75
2022/04/05 08:22:38;;;;;;;7.47;5.10;;;;;;;9.82;49.02;94462.75;5130792;27;20493;-75
2022/04/05 08:25:04;;;;;;;6.47;5.28;;;;;;;10.10;48.70;94481.16;5111797;27;20061;-75
2022/04/05 08:27:29;;;;;;;7.55;4.60;;;;;;;10.20;48.13;94471.63;5115239;27;20551;-75
2022/04/05 08:29:55;;;;;;;7.38;4.00;;;;;;;10.29;47.91;94471.66;5131858;27;20031;-75
2022/04/05 08:32:20;;;;;;;6.70;4.85;;;;;;;10.34;47.91;94473.06;5110184;28;20035;-73
2022/04/05 08:34:46;;;;;;;5.70;4.38;;;;;;;10.39;47.82;94474.31;5129069;27;20035;-73
2022/04/05 08:37:12;;;;;;;6.60;4.45;;;;;;;10.41;47.09;94464.56;5129442;27;20058;-74
2022/04/05 08:39:38;;;;;;;7.38;4.47;;;;;;;10.33;47.43;94450.63;5131259;27;20604;-73
2022/04/05 08:42:04;;;;;;;7.25;4.30;;;;;;;10.51;47.75;94459.41;5131656;27;20027;-74
2022/04/05 08:44:30;;;;;;;6.00;4.28;;;;;;;10.65;48.30;94455.59;5113853;27;20058;-73
2022/04/05 08:46:55;;;;;;;7.72;4.90;;;;;;;10.76;47.61;94452.88;5112930;27;20489;-73
2022/04/05 08:49:21;;;;;;;6.40;4.97;;;;;;;10.92;47.37;94454.88;5132197;27;20087;-74
2022/04/05 08:51:46;;;;;;;6.97;5.00;;;;;;;11.00;46.37;94449.81;5131559;27;20412;-73
2022/04/05 08:54:11;;;;;;;6.18;4.53;;;;;;;10.97;46.29;94450.09;5131306;27;20027;-73
2022/04/05 08:56:37;;;;;;;9.55;4.38;;;;;;;10.98;45.45;94441.38;5131467;27;20027;-74
2022/04/05 08:59:02;;;;;;;6.40;4.03;;;;;;;11.07;45.56;94443.13;5129657;27;20027;-73
2022/04/05 09:01:29;;;;;;;6.63;4.30;;;;;;;11.14;44.85;94436.44;5097489;27;20092;-73
2022/04/05 09:03:56;;;;;;;4.90;3.80;;;;;;;10.95;45.15;94437.28;5114250;27;20036;-73
2022/04/05 09:06:28;;;;;;;7.03;4.20;;;;;;;10.92;45.26;94427.16;5109697;27;20464;-73
2022/04/05 09:09:06;;;;;;;6.95;4.05;;;;;;;10.90;44.86;94428.25;5130388;27;20023;-74
2022/04/05 09:11:32;;;;;;;7.15;4.25;;;;;;;10.98;44.88;94436.16;5131445;27;20046;-73
2022/04/05 09:13:58;;;;;;;7.50;5.15;;;;;;;10.88;45.46;94423.19;5117752;27;20424;-73
2022/04/05 09:16:32;;;;;;;6.55;5.07;;;;;;;10.95;46.08;94415.66;5110172;27;20035;-73
2022/04/05 09:19:13;;;;;;;7.57;4.40;;;;;;;11.10;43.51;94414.25;5113872;27;20097;-73
2022/04/05 09:21:52;;;;;;;5.15;3.95;;;;;;;11.17;44.48;94420.53;5108816;28;20036;-73
2022/04/05 09:24:17;;;;;;;5.10;4.05;;;;;;;11.22;42.74;94414.09;5136180;27;20030;-74
2022/04/05 09:26:43;;;;;;;6.78;3.95;;;;;;;11.28;44.76;94414.38;5129323;27;20049;-73
2022/04/05 09:29:09;;;;;;;4.85;3.92;;;;;;;11.34;43.96;94410.38;5128713;27;20027;-73
2022/04/05 09:31:48;;;;;;;6.70;4.30;;;;;;;11.46;44.58;94414.44;5130057;27;20038;-73
2022/04/05 09:34:17;;;;;;;6.78;4.13;;;;;;;11.53;43.32;94405.13;5139996;27;20027;-73
2022/04/05 09:36:44;;;;;;;18.33;10.75;;;;;;;11.60;43.69;94413.97;5128050;27;20082;-73
2022/04/05 09:39:23;;;;;;;49.22;20.23;;;;;;;11.73;42.51;94395.44;5106686;27;20033;-73
2022/04/05 09:42:02;;;;;;;7.47;4.57;;;;;;;11.75;41.58;94396.09;5093488;27;20049;-73
2022/04/05 09:44:29;;;;;;;5.32;3.92;;;;;;;11.82;41.66;94399.78;5119458;27;20039;-73
2022/04/05 09:47:03;;;;;;;4.95;3.80;;;;;;;11.97;42.87;94392.31;5121107;27;20560;-73
2022/04/05 09:49:34;;;;;;;6.68;4.22;;;;;;;12.13;42.72;94386.47;5109133;27;20050;-74
2022/04/05 09:52:00;;;;;;;7.53;4.20;;;;;;;12.29;41.95;94380.63;5097979;28;20031;-73
2022/04/05 09:54:29;;;;;;;6.65;4.15;;;;;;;12.44;42.25;94383.53;5097355;27;20505;-73
2022/04/05 09:57:06;;;;;;;6.53;3.72;;;;;;;12.55;40.07;94391.13;5100981;27;20023;-73
2022/04/05 09:59:50;;;;;;;4.22;3.42;;;;;;;12.47;40.85;94373.63;5126065;27;20057;-73
2022/04/05 10:02:16;;;;;;;7.85;4.78;;;;;;;12.37;40.54;94375.50;5108865;28;20031;-74
2022/04/05 10:05:06;;;;;;;7.22;4.20;;;;;;;12.34;40.29;94370.59;5112901;27;20035;-73
2022/04/05 10:07:32;;;;;;;5.15;3.67;;;;;;;12.38;41.49;94371.91;5111305;27;20514;-74
2022/04/05 10:09:58;;;;;;;6.82;3.97;;;;;;;12.27;41.93;94369.53;5133471;27;20061;-73
2022/04/05 10:12:23;;;;;;;5.10;3.75;;;;;;;12.29;41.21;94354.59;5093624;27;20031;-73
2022/04/05 10:14:49;;;;;;;4.63;3.65;;;;;;;12.44;39.51;94363.50;5115792;27;20129;-74
2022/04/05 10:17:14;;;;;;;5.88;3.65;;;;;;;12.41;39.63;94361.19;5112970;27;20035;-73
2022/04/05 10:19:45;;;;;;;7.05;3.70;;;;;;;12.27;39.97;94348.69;5111348;27;20481;-73
2022/04/05 10:22:12;;;;;;;5.80;3.58;;;;;;;12.09;41.08;94338.28;5094800;27;20327;-73
2022/04/05 10:24:38;;;;;;;4.78;3.50;;;;;;;12.34;40.82;94354.13;5110691;27;20119;-73
2022/04/05 10:27:05;;;;;;;5.82;3.70;;;;;;;12.42;39.23;94347.19;5129898;27;20035;-74
2022/04/05 10:29:30;;;;;;;5.55;3.35;;;;;;;12.45;39.87;94349.53;5102372;27;20489;-73
2022/04/05 10:32:07;;;;;;;5.05;3.70;;;;;;;12.55;40.59;94333.00;5120492;27;20043;-73
2022/04/05 10:34:49;;;;;;;4.55;3.85;;;;;;;12.72;39.95;94337.34;5108231;27;20122;-73
2022/04/05 10:37:19;;;;;;;4.45;3.45;;;;;;;12.79;40.57;94330.56;5107443;27;20044;-74
2022/04/05 10:39:57;;;;;;;4.95;3.80;;;;;;;12.80;39.14;94320.97;5125282;27;20038;-74
2022/04/05 10:42:25;;;;;;;4.82;4.00;;;;;;;12.70;39.01;94323.66;5128196;27;20034;-74
2022/04/05 10:45:15;;;;;;;5.05;3.30;;;;;;;12.75;39.97;94318.81;5139733;27;20070;-74
2022/04/05 10:48:00;;;;;;;4.68;3.40;;;;;;;12.94;38.84;94320.41;5126348;27;20088;-74
2022/04/05 10:50:25;;;;;;;5.80;3.53;;;;;;;13.00;39.42;94322.41;5124023;27;20039;-75
2022/04/05 10:53:10;;;;;;;5.15;3.80;;;;;;;13.20;39.43;94304.72;5109486;27;20431;-74
2022/04/05 10:56:04;;;;;;;4.72;3.28;;;;;;;13.33;39.13;94313.00;5125985;27;20050;-74
2022/04/05 10:58:30;;;;;;;5.43;3.45;;;;;;;13.21;38.17;94301.19;5127963;27;20062;-74
2022/04/05 11:01:18;;;;;;;5.07;3.30;;;;;;;13.13;38.83;94293.31;5131048;27;20507;-74
2022/04/05 11:04:17;;;;;;;4.35;3.42;;;;;;;13.13;38.29;94295.91;5126102;27;20034;-75
2022/04/05 11:07:05;;;;;;;3.38;3.03;;;;;;;13.18;38.65;94293.66;5115035;27;20475;-74
2022/04/05 11:09:40;;;;;;;6.00;3.17;;;;;;;13.26;37.65;94290.28;5120291;27;20193;-73
2022/04/05 11:12:09;;;;;;;4.88;3.67;;;;;;;13.31;37.60;94288.03;5100083;27;20023;-75
2022/04/05 11:14:35;;;;;;;4.40;3.22;;;;;;;13.41;37.11;94280.91;5107849;28;20035;-74
2022/04/05 11:17:05;;;;;;;6.13;3.42;;;;;;;13.35;37.63;94264.09;5128487;28;20462;-74
2022/04/05 11:19:33;;;;;;;8.45;3.20;;;;;;;13.51;37.94;94278.16;5118528;28;20042;-74
2022/04/05 11:22:01;;;;;;;5.18;3.30;;;;;;;13.49;38.31;94259.25;5130438;27;20568;-79
2022/04/05 11:25:04;;;;;;;5.25;3.47;;;;;;;13.78;36.90;94267.47;5098722;27;20121;-77
2022/04/05 11:27:35;;;;;;;4.07;2.92;;;;;;;13.86;36.74;94259.66;5133953;27;20026;-77
2022/04/05 11:30:19;;;;;;;7.07;2.78;;;;;;;13.96;35.95;94256.94;5136418;27;20109;-76
2022/04/05 11:33:06;;;;;;;5.55;3.15;;;;;;;13.92;35.32;94254.78;5134787;27;20057;-77
2022/04/05 11:36:07;;;;;;;5.47;3.25;;;;;;;13.91;36.80;94245.34;5134717;27;20031;-77